Time;durP1;ratioP1;P1;durP2;ratioP2;P2;SDS_P1;SDS_P2;PMS_P1;PMS_P2;Temp;Humidity;BMP_temperature;BMP_pressure;BME280_temperature;BME280_humidity;BME280_pressure;Samples;Min_cycle;Max_cycle;Signal;HPM_P1;HPM_P2
2022/03/13 00:00:22;;;;;;;9.00;3.55;;;12.30;99.90;;;;;;5013303;28;20128;-65
2022/03/13 00:02:47;;;;;;;3.08;2.05;;;12.20;99.90;;;;;;5024643;28;20025;-65
2022/03/13 00:05:17;;;;;;;5.07;2.47;;;12.20;99.90;;;;;;5012059;28;20098;-63
2022/03/13 00:07:47;;;;;;;7.57;3.55;;;12.20;99.90;;;;;;5017531;28;20034;-61
2022/03/13 00:10:19;;;;;;;3.72;2.40;;;12.20;99.90;;;;;;5015016;28;20121;-62
2022/03/13 00:12:48;;;;;;;5.28;2.75;;;12.20;99.90;;;;;;5020544;28;20067;-61
2022/03/13 00:15:14;;;;;;;6.95;3.20;;;12.20;99.90;;;;;;5008691;28;20040;-62
2022/03/13 00:17:40;;;;;;;6.63;2.42;;;12.20;99.90;;;;;;5005958;28;20033;-62
2022/03/13 00:20:08;;;;;;;4.30;2.03;;;12.20;99.90;;;;;;5006587;28;20030;-62
2022/03/13 00:22:35;;;;;;;3.70;1.92;;;12.20;99.90;;;;;;5014941;28;20087;-63
2022/03/13 00:25:03;;;;;;;5.72;2.70;;;12.20;99.90;;;;;;5011918;28;20042;-62
2022/03/13 00:27:31;;;;;;;5.22;2.75;;;12.20;99.90;;;;;;5014747;28;20033;-62
2022/03/13 00:29:57;;;;;;;5.07;2.67;;;12.20;99.90;;;;;;5004096;28;20099;-62
2022/03/13 00:32:23;;;;;;;6.57;2.75;;;12.20;99.90;;;;;;5012842;28;20467;-62
2022/03/13 00:34:49;;;;;;;8.23;2.88;;;12.20;99.90;;;;;;5023894;28;20075;-62
2022/03/13 00:37:14;;;;;;;4.43;2.60;;;12.20;99.90;;;;;;5013193;28;20069;-62
2022/03/13 00:39:40;;;;;;;7.30;2.63;;;12.20;99.90;;;;;;5012458;28;20465;-62
2022/03/13 00:42:07;;;;;;;5.90;2.95;;;12.20;99.90;;;;;;5007392;28;20057;-62
2022/03/13 00:44:33;;;;;;;7.68;3.92;;;12.20;99.90;;;;;;5015849;28;20046;-62
2022/03/13 00:46:59;;;;;;;3.78;2.45;;;12.20;99.90;;;;;;5018994;28;20470;-62
2022/03/13 00:49:24;;;;;;;5.13;2.20;;;12.20;99.90;;;;;;5013715;28;20399;-62
2022/03/13 00:51:50;;;;;;;5.20;2.67;;;12.20;99.90;;;;;;5013905;28;20033;-62
2022/03/13 00:54:15;;;;;;;4.60;2.63;;;12.20;99.90;;;;;;5013794;28;20493;-62
2022/03/13 00:56:41;;;;;;;5.07;2.65;;;12.20;99.90;;;;;;5015136;28;20115;-62
2022/03/13 00:59:06;;;;;;;5.50;2.55;;;12.20;99.90;;;;;;5010824;28;20023;-61
2022/03/13 01:01:32;;;;;;;7.28;2.63;;;12.20;99.90;;;;;;5013754;28;20470;-62
2022/03/13 01:03:58;;;;;;;7.47;3.65;;;12.20;99.90;;;;;;5011664;28;20034;-61
2022/03/13 01:06:24;;;;;;;8.85;3.97;;;12.20;99.90;;;;;;5007875;28;20435;-64
2022/03/13 01:08:52;;;;;;;7.25;3.63;;;12.20;99.90;;;;;;5012594;28;20028;-62
2022/03/13 01:11:20;;;;;;;7.72;3.60;;;12.20;99.90;;;;;;5013218;28;20041;-62
2022/03/13 01:13:50;;;;;;;6.50;3.13;;;12.20;99.90;;;;;;5009678;28;20053;-63
2022/03/13 01:16:27;;;;;;;5.68;2.60;;;12.20;99.90;;;;;;5010876;28;20034;-64
2022/03/13 01:18:56;;;;;;;7.45;3.55;;;12.20;99.90;;;;;;5023296;28;20032;-62
2022/03/13 01:21:22;;;;;;;6.72;3.08;;;12.10;99.90;;;;;;5012265;28;20107;-62
2022/03/13 01:24:16;;;;;;;5.15;3.20;;;12.00;99.90;;;;;;5007418;28;20494;-62
2022/03/13 01:26:42;;;;;;;10.18;4.65;;;11.90;99.90;;;;;;5015654;28;20529;-65
2022/03/13 01:29:10;;;;;;;9.75;4.63;;;11.90;99.90;;;;;;5036221;28;20029;-64
2022/03/13 01:31:40;;;;;;;8.50;3.83;;;12.00;99.90;;;;;;5023326;28;20108;-65
2022/03/13 01:34:10;;;;;;;7.22;3.20;;;12.00;99.90;;;;;;5016410;28;20036;-66
2022/03/13 01:36:36;;;;;;;6.50;3.08;;;12.00;99.90;;;;;;5015308;28;20030;-63
2022/03/13 01:39:03;;;;;;;6.82;3.42;;;12.00;99.90;;;;;;5031884;28;20125;-62
2022/03/13 01:41:32;;;;;;;6.13;3.25;;;12.00;99.90;;;;;;5017552;28;20033;-63
2022/03/13 01:44:00;;;;;;;7.00;3.47;;;12.10;99.90;;;;;;5027421;28;20565;-62
2022/03/13 01:46:27;;;;;;;8.85;3.70;;;12.00;99.90;;;;;;5015613;28;20494;-62
2022/03/13 01:49:07;;;;;;;5.15;2.67;;;12.00;99.90;;;;;;5026672;28;20075;-62
2022/03/13 01:51:34;;;;;;;9.57;3.55;;;12.00;99.90;;;;;;5019589;28;20061;-63
2022/03/13 01:54:12;;;;;;;6.40;2.92;;;12.00;99.90;;;;;;5027426;28;20108;-64
2022/03/13 01:56:39;;;;;;;6.60;3.13;;;12.00;99.90;;;;;;5015373;28;20378;-66
2022/03/13 01:59:07;;;;;;;5.88;3.10;;;12.00;99.90;;;;;;5026762;28;20045;-63
2022/03/13 02:01:34;;;;;;;5.88;2.92;;;12.00;99.90;;;;;;5023819;28;20108;-63
2022/03/13 02:04:00;;;;;;;4.40;2.72;;;12.00;99.90;;;;;;5013323;28;20077;-63
2022/03/13 02:06:29;;;;;;;7.20;3.25;;;12.00;99.90;;;;;;5016553;28;20053;-64
2022/03/13 02:08:55;;;;;;;7.38;3.15;;;11.90;99.90;;;;;;5018946;28;20017;-67
2022/03/13 02:11:24;;;;;;;10.07;3.97;;;11.90;99.90;;;;;;5027101;28;20120;-63
2022/03/13 02:13:54;;;;;;;5.28;2.95;;;11.90;99.90;;;;;;5019171;28;20072;-62
2022/03/13 02:16:21;;;;;;;7.82;3.67;;;11.90;99.90;;;;;;5033669;28;20025;-62
2022/03/13 02:18:52;;;;;;;8.18;3.28;;;11.90;99.90;;;;;;5007863;28;20104;-62
2022/03/13 02:21:22;;;;;;;6.07;3.20;;;11.90;99.90;;;;;;5012474;28;20033;-62
2022/03/13 02:23:48;;;;;;;5.50;3.05;;;11.80;99.90;;;;;;5008530;28;20050;-62
2022/03/13 02:26:13;;;;;;;9.98;4.07;;;11.80;99.90;;;;;;5005333;28;20080;-62
2022/03/13 02:28:52;;;;;;;6.40;2.88;;;11.80;99.90;;;;;;5008596;28;20083;-63
2022/03/13 02:31:26;;;;;;;7.63;3.58;;;11.80;99.90;;;;;;5017432;28;20083;-62
2022/03/13 02:33:53;;;;;;;5.93;3.38;;;11.80;99.90;;;;;;5016392;28;20034;-62
2022/03/13 02:36:31;;;;;;;6.13;3.45;;;11.70;99.90;;;;;;5018604;28;20049;-62
2022/03/13 02:38:58;;;;;;;4.65;3.00;;;11.80;99.90;;;;;;5015690;28;20065;-62
2022/03/13 02:41:26;;;;;;;6.15;3.22;;;11.80;99.90;;;;;;5009806;28;20026;-62
2022/03/13 02:43:56;;;;;;;6.20;3.10;;;11.80;99.90;;;;;;5022327;28;20136;-62
2022/03/13 02:46:47;;;;;;;9.23;4.07;;;11.80;99.90;;;;;;5016373;28;20029;-62
2022/03/13 02:49:17;;;;;;;7.05;3.40;;;11.80;99.90;;;;;;5011841;28;20040;-62
2022/03/13 02:51:44;;;;;;;6.90;3.28;;;11.80;99.90;;;;;;5021861;28;20494;-62
2022/03/13 02:54:10;;;;;;;5.72;3.65;;;11.70;99.90;;;;;;5022453;28;20100;-62
2022/03/13 02:56:36;;;;;;;9.00;4.07;;;11.70;99.90;;;;;;5023548;28;20389;-62
2022/03/13 02:59:02;;;;;;;7.10;3.40;;;11.70;99.90;;;;;;5025107;28;20033;-61
2022/03/13 03:01:27;;;;;;;7.60;3.80;;;11.70;99.90;;;;;;5022129;28;20034;-62
2022/03/13 03:03:57;;;;;;;10.05;4.47;;;11.70;99.90;;;;;;5024507;28;20029;-62
2022/03/13 03:06:24;;;;;;;9.63;3.80;;;11.70;99.90;;;;;;5020133;28;20042;-62
2022/03/13 03:08:51;;;;;;;6.70;3.70;;;11.70;99.90;;;;;;5028118;28;20033;-62
2022/03/13 03:11:17;;;;;;;6.93;3.47;;;11.70;99.90;;;;;;5021766;28;20029;-64
2022/03/13 03:13:42;;;;;;;7.03;4.00;;;11.60;99.90;;;;;;5018689;28;20105;-62
2022/03/13 03:16:08;;;;;;;6.93;3.75;;;11.60;99.90;;;;;;5014031;28;20061;-62
2022/03/13 03:18:34;;;;;;;10.88;4.28;;;11.60;99.90;;;;;;5032868;28;20029;-62
2022/03/13 03:20:59;;;;;;;11.45;4.40;;;11.60;99.90;;;;;;5021389;28;20095;-62
2022/03/13 03:23:25;;;;;;;7.18;3.50;;;11.60;99.90;;;;;;5026232;28;20065;-62
2022/03/13 03:25:50;;;;;;;6.82;3.85;;;11.60;99.90;;;;;;5015180;28;20038;-62
2022/03/13 03:28:18;;;;;;;6.93;3.55;;;11.50;99.90;;;;;;5015510;28;20037;-61
2022/03/13 03:30:44;;;;;;;7.32;3.53;;;11.50;99.90;;;;;;5016489;28;20466;-61
2022/03/13 03:33:10;;;;;;;9.15;3.90;;;11.50;99.90;;;;;;5016040;28;20057;-61
2022/03/13 03:35:36;;;;;;;7.60;3.60;;;11.50;99.90;;;;;;5019804;28;20065;-61
2022/03/13 03:38:02;;;;;;;9.00;3.72;;;11.40;99.90;;;;;;5017728;28;20037;-61
2022/03/13 03:40:30;;;;;;;6.63;3.35;;;11.40;99.90;;;;;;5015425;28;20026;-62
2022/03/13 03:42:57;;;;;;;7.88;3.40;;;11.40;99.90;;;;;;5005596;28;20054;-62
2022/03/13 03:45:23;;;;;;;8.05;4.15;;;11.50;99.90;;;;;;5019543;28;20045;-62
2022/03/13 03:47:48;;;;;;;8.55;3.90;;;11.40;99.90;;;;;;5019501;28;20075;-62
2022/03/13 03:50:14;;;;;;;6.40;3.13;;;11.40;99.90;;;;;;5026538;28;20056;-62
2022/03/13 03:52:41;;;;;;;5.75;2.90;;;11.50;99.90;;;;;;5030967;28;20025;-62
2022/03/13 03:55:07;;;;;;;6.82;3.10;;;11.50;99.90;;;;;;5017110;28;20113;-62
2022/03/13 03:57:33;;;;;;;8.23;3.70;;;11.50;99.90;;;;;;5021633;28;20061;-61
2022/03/13 03:59:59;;;;;;;8.23;3.58;;;11.50;99.90;;;;;;5023439;28;20456;-62
2022/03/13 04:02:25;;;;;;;9.18;3.75;;;11.50;99.90;;;;;;5028300;28;20040;-62
2022/03/13 04:04:50;;;;;;;7.18;3.70;;;11.50;99.90;;;;;;5017665;28;20042;-62
2022/03/13 04:07:18;;;;;;;7.47;3.33;;;11.60;99.90;;;;;;5022093;28;20072;-62
2022/03/13 04:09:43;;;;;;;7.50;3.97;;;11.50;99.90;;;;;;5018257;28;20029;-62
2022/03/13 04:12:10;;;;;;;8.93;3.75;;;11.50;99.90;;;;;;5024834;28;20021;-61
2022/03/13 04:14:35;;;;;;;11.10;4.80;;;11.50;99.90;;;;;;5031705;28;20030;-62
2022/03/13 04:17:02;;;;;;;9.93;4.68;;;11.50;99.90;;;;;;5021375;28;20485;-62
2022/03/13 04:19:28;;;;;;;8.07;3.97;;;11.40;99.90;;;;;;5025384;28;20040;-62
2022/03/13 04:21:55;;;;;;;11.13;4.03;;;11.40;99.90;;;;;;5025831;28;20021;-62
2022/03/13 04:24:21;;;;;;;10.48;4.50;;;11.40;99.90;;;;;;5019014;28;20124;-64
2022/03/13 04:26:48;;;;;;;13.10;5.50;;;11.30;99.90;;;;;;5022605;28;20026;-61
2022/03/13 04:29:16;;;;;;;9.10;4.60;;;11.30;99.90;;;;;;5031371;28;20022;-63
2022/03/13 04:31:42;;;;;;;8.60;4.05;;;11.30;99.90;;;;;;5021692;28;20075;-62
2022/03/13 04:34:09;;;;;;;7.53;3.85;;;11.30;99.90;;;;;;5026641;28;20424;-63
2022/03/13 04:36:35;;;;;;;9.68;5.20;;;11.30;99.90;;;;;;5020071;28;20029;-63
2022/03/13 04:39:01;;;;;;;10.10;4.93;;;11.30;99.90;;;;;;5019823;28;20079;-62
2022/03/13 04:41:28;;;;;;;9.85;4.65;;;11.30;99.90;;;;;;5023802;28;20041;-63
2022/03/13 04:43:55;;;;;;;11.02;4.93;;;11.30;99.90;;;;;;5025450;28;20072;-63
2022/03/13 04:46:20;;;;;;;10.13;4.85;;;11.30;99.90;;;;;;5015866;28;20030;-63
2022/03/13 04:48:46;;;;;;;11.13;4.60;;;11.30;99.90;;;;;;5023888;28;20080;-63
2022/03/13 04:51:12;;;;;;;10.77;4.80;;;11.20;99.90;;;;;;5014299;28;20034;-63
2022/03/13 04:53:38;;;;;;;8.48;4.28;;;11.20;99.90;;;;;;5014628;28;20351;-62
2022/03/13 04:56:04;;;;;;;10.75;4.90;;;11.20;99.90;;;;;;5014300;28;20036;-63
2022/03/13 04:58:31;;;;;;;10.10;5.28;;;11.20;99.90;;;;;;5014884;28;20018;-63
2022/03/13 05:00:57;;;;;;;9.35;4.65;;;11.20;99.90;;;;;;5014446;28;20058;-62
2022/03/13 05:03:22;;;;;;;10.77;5.05;;;11.20;99.90;;;;;;5014615;28;20069;-63
2022/03/13 05:05:48;;;;;;;10.35;4.80;;;11.10;99.90;;;;;;5013993;28;20052;-63
2022/03/13 05:08:15;;;;;;;14.07;6.60;;;11.10;99.90;;;;;;5013885;28;20030;-62
2022/03/13 05:10:43;;;;;;;12.95;5.32;;;11.00;99.90;;;;;;5014230;28;20030;-63
2022/03/13 05:13:14;;;;;;;12.35;5.43;;;10.90;99.90;;;;;;5017462;28;20026;-61
2022/03/13 05:15:39;;;;;;;12.60;5.45;;;10.80;99.90;;;;;;5013647;28;20026;-62
2022/03/13 05:18:06;;;;;;;10.98;4.95;;;10.70;99.90;;;;;;5014023;28;20112;-61
2022/03/13 05:20:34;;;;;;;13.25;5.22;;;10.60;99.90;;;;;;5013947;28;20880;-62
2022/03/13 05:23:00;;;;;;;13.20;6.05;;;10.50;99.90;;;;;;5010598;28;20049;-63
2022/03/13 05:25:29;;;;;;;11.77;5.10;;;10.40;99.90;;;;;;5013025;28;20156;-62
2022/03/13 05:27:55;;;;;;;10.10;5.13;;;10.40;99.90;;;;;;5020469;28;20025;-62
2022/03/13 05:30:21;;;;;;;12.55;5.28;;;10.40;99.90;;;;;;5026534;28;20029;-62
2022/03/13 05:32:48;;;;;;;13.95;5.40;;;10.40;99.90;;;;;;5021775;28;20022;-62
2022/03/13 05:35:14;;;;;;;13.85;6.05;;;10.40;99.90;;;;;;5012202;28;20088;-63
2022/03/13 05:37:40;;;;;;;12.35;5.40;;;10.40;99.90;;;;;;5010040;28;20030;-62
2022/03/13 05:40:07;;;;;;;12.85;5.05;;;10.40;99.90;;;;;;5010718;28;20477;-62
2022/03/13 05:42:32;;;;;;;14.18;5.55;;;10.40;99.90;;;;;;5013647;28;20034;-63
2022/03/13 05:44:59;;;;;;;15.15;6.45;;;10.40;99.90;;;;;;5013853;28;20037;-62
2022/03/13 05:47:24;;;;;;;11.60;5.63;;;10.40;99.90;;;;;;5013818;28;20028;-63
2022/03/13 05:49:50;;;;;;;13.77;5.68;;;10.40;99.90;;;;;;5008729;28;20034;-62
2022/03/13 05:52:16;;;;;;;9.55;4.63;;;10.50;99.90;;;;;;5023280;28;20072;-62
2022/03/13 05:54:42;;;;;;;12.43;5.22;;;10.50;99.90;;;;;;5008827;28;20110;-62
2022/03/13 05:57:10;;;;;;;14.23;6.70;;;10.50;99.90;;;;;;5012335;28;20030;-63
2022/03/13 05:59:37;;;;;;;12.63;5.90;;;10.50;99.90;;;;;;5013729;28;20026;-63
2022/03/13 06:02:07;;;;;;;10.20;5.10;;;10.50;99.90;;;;;;5005995;28;20030;-62
2022/03/13 06:04:35;;;;;;;12.45;5.50;;;10.50;99.90;;;;;;5012057;28;20038;-63
2022/03/13 06:07:01;;;;;;;12.23;5.63;;;10.50;99.90;;;;;;5013199;28;20486;-62
2022/03/13 06:09:27;;;;;;;12.68;5.60;;;10.50;99.90;;;;;;5013081;28;20052;-62
2022/03/13 06:11:52;;;;;;;11.85;5.53;;;10.50;99.90;;;;;;5012762;28;20109;-62
2022/03/13 06:14:18;;;;;;;13.02;5.72;;;10.50;99.90;;;;;;5012996;28;20034;-62
2022/03/13 06:16:44;;;;;;;12.50;5.90;;;10.50;99.90;;;;;;5006588;28;20041;-64
2022/03/13 06:19:10;;;;;;;13.52;5.72;;;10.50;99.90;;;;;;5011495;28;20088;-62
2022/03/13 06:21:35;;;;;;;10.38;5.50;;;10.50;99.90;;;;;;5012447;28;20026;-65
2022/03/13 06:24:01;;;;;;;12.45;6.10;;;10.50;99.90;;;;;;5010076;28;20100;-64
2022/03/13 06:26:27;;;;;;;13.50;6.65;;;10.50;99.90;;;;;;5009032;28;20124;-65
2022/03/13 06:28:52;;;;;;;12.27;5.78;;;10.50;99.90;;;;;;5012877;28;20072;-63
2022/03/13 06:31:18;;;;;;;14.32;6.47;;;10.50;99.90;;;;;;5026957;28;20053;-64
2022/03/13 06:33:44;;;;;;;12.20;6.18;;;10.50;99.90;;;;;;5013165;28;20378;-66
2022/03/13 06:36:11;;;;;;;12.25;5.90;;;10.50;99.90;;;;;;5010795;28;20436;-62
2022/03/13 06:38:36;;;;;;;13.93;6.65;;;10.50;99.90;;;;;;5011169;28;20054;-65
2022/03/13 06:41:02;;;;;;;13.40;5.88;;;10.50;99.90;;;;;;5013956;28;20057;-64
2022/03/13 06:43:28;;;;;;;17.90;7.95;;;10.40;99.90;;;;;;5013155;28;20030;-66
2022/03/13 06:45:54;;;;;;;18.38;7.20;;;10.40;99.90;;;;;;5012196;28;20077;-63
2022/03/13 06:48:21;;;;;;;15.32;7.53;;;10.40;99.90;;;;;;5008885;28;20058;-62
2022/03/13 06:50:48;;;;;;;18.30;8.35;;;10.50;99.90;;;;;;5012364;28;20056;-66
2022/03/13 06:53:14;;;;;;;18.27;7.88;;;10.50;99.90;;;;;;5012771;28;20536;-64
2022/03/13 06:55:40;;;;;;;20.48;9.45;;;10.60;99.90;;;;;;5013703;28;20025;-64
2022/03/13 06:58:06;;;;;;;20.30;9.98;;;10.70;99.90;;;;;;5013146;28;20084;-61
2022/03/13 07:00:33;;;;;;;20.33;9.30;;;10.80;99.90;;;;;;5012476;28;20034;-63
2022/03/13 07:02:59;;;;;;;18.75;9.25;;;10.90;99.90;;;;;;5011792;28;20408;-65
2022/03/13 07:05:24;;;;;;;22.23;11.02;;;10.90;99.90;;;;;;5012074;28;20538;-63
2022/03/13 07:07:54;;;;;;;21.42;10.10;;;11.00;99.90;;;;;;5011948;28;20030;-64
2022/03/13 07:10:20;;;;;;;23.55;11.93;;;11.00;99.90;;;;;;5012353;28;20026;-62
2022/03/13 07:12:47;;;;;;;25.77;12.02;;;11.00;99.90;;;;;;5011707;28;20037;-63
2022/03/13 07:15:14;;;;;;;21.67;11.30;;;11.00;99.90;;;;;;5012410;28;20034;-63
2022/03/13 07:17:44;;;;;;;21.77;11.30;;;11.10;99.90;;;;;;5013029;28;20032;-66
2022/03/13 07:20:10;;;;;;;23.23;12.48;;;11.10;99.90;;;;;;5009894;28;20045;-63
2022/03/13 07:22:36;;;;;;;24.95;12.13;;;11.20;99.90;;;;;;5021385;28;20105;-64
2022/03/13 07:25:03;;;;;;;22.58;12.00;;;11.30;99.90;;;;;;5012037;28;20516;-63
2022/03/13 07:27:28;;;;;;;24.65;11.63;;;11.40;99.90;;;;;;5012227;28;20029;-67
2022/03/13 07:29:54;;;;;;;23.95;11.98;;;11.50;99.90;;;;;;5008931;28;20034;-62
2022/03/13 07:32:20;;;;;;;27.95;13.43;;;11.60;99.90;;;;;;4999457;28;20373;-63
2022/03/13 07:34:46;;;;;;;25.35;13.25;;;11.60;99.90;;;;;;5004288;28;20474;-65
2022/03/13 07:37:11;;;;;;;25.10;12.93;;;11.60;99.90;;;;;;5016278;28;20036;-65
2022/03/13 07:39:39;;;;;;;22.00;11.23;;;11.60;99.90;;;;;;5017383;28;20037;-63
2022/03/13 07:42:06;;;;;;;25.63;12.30;;;11.60;99.90;;;;;;5021207;28;20025;-65
2022/03/13 07:44:31;;;;;;;24.88;13.15;;;11.50;99.90;;;;;;5017808;28;20035;-63
2022/03/13 07:46:57;;;;;;;23.15;12.05;;;11.30;99.90;;;;;;5012488;28;20036;-66
2022/03/13 07:49:22;;;;;;;25.70;13.93;;;11.30;99.90;;;;;;5015109;28;20021;-63
2022/03/13 07:51:48;;;;;;;26.02;13.57;;;11.20;99.90;;;;;;5014914;28;20533;-67
2022/03/13 07:54:19;;;;;;;23.38;12.65;;;11.20;99.90;;;;;;5015151;28;20034;-65
2022/03/13 07:56:45;;;;;;;25.38;13.02;;;11.20;99.90;;;;;;5014142;28;20022;-66
2022/03/13 07:59:10;;;;;;;23.75;12.82;;;11.20;99.90;;;;;;5028914;28;20053;-64
2022/03/13 08:01:36;;;;;;;23.88;13.10;;;11.30;99.90;;;;;;5015394;28;20034;-62
2022/03/13 08:04:05;;;;;;;27.17;12.20;;;11.30;99.90;;;;;;5014020;28;20041;-65
2022/03/13 08:06:35;;;;;;;24.65;12.27;;;11.50;99.90;;;;;;5014554;28;20485;-66
2022/03/13 08:09:05;;;;;;;24.48;13.48;;;11.60;99.90;;;;;;5014827;28;20153;-64
2022/03/13 08:11:34;;;;;;;22.60;12.48;;;11.70;99.90;;;;;;5014937;28;20091;-63
2022/03/13 08:14:04;;;;;;;24.05;11.80;;;11.80;99.90;;;;;;5014373;28;20377;-66
2022/03/13 08:16:30;;;;;;;21.58;11.65;;;12.00;99.90;;;;;;5014195;28;20022;-62
2022/03/13 08:18:56;;;;;;;24.27;12.00;;;12.20;99.90;;;;;;5015049;28;20596;-64
2022/03/13 08:21:22;;;;;;;23.88;11.55;;;12.30;99.90;;;;;;5013501;28;20108;-62
2022/03/13 08:23:47;;;;;;;23.95;12.20;;;12.40;99.90;;;;;;5023164;28;20165;-63
2022/03/13 08:26:13;;;;;;;26.55;13.10;;;12.50;99.90;;;;;;5014766;28;20087;-64
2022/03/13 08:28:41;;;;;;;23.60;12.70;;;12.50;99.90;;;;;;5014957;28;20061;-63
2022/03/13 08:31:07;;;;;;;23.23;11.68;;;12.60;99.90;;;;;;5014551;28;20022;-66
2022/03/13 08:33:33;;;;;;;25.30;13.43;;;12.80;99.90;;;;;;5014938;28;20026;-63
2022/03/13 08:35:59;;;;;;;23.08;12.23;;;13.00;99.90;;;;;;5013380;28;20087;-62
2022/03/13 08:38:25;;;;;;;25.95;13.48;;;13.30;99.90;;;;;;5012852;28;20029;-63
2022/03/13 08:40:50;;;;;;;26.02;13.00;;;13.50;99.90;;;;;;5015156;28;20096;-64
2022/03/13 08:43:16;;;;;;;21.27;11.63;;;13.70;99.90;;;;;;5014965;28;20026;-65
2022/03/13 08:45:42;;;;;;;23.20;12.77;;;13.80;99.90;;;;;;5014275;28;20037;-63
2022/03/13 08:48:08;;;;;;;25.65;13.77;;;13.90;99.90;;;;;;5012592;28;20034;-63
2022/03/13 08:50:34;;;;;;;24.00;13.43;;;14.40;99.90;;;;;;5013669;28;20451;-65
2022/03/13 08:53:00;;;;;;;24.55;12.95;;;14.60;99.90;;;;;;5011671;28;20449;-66
2022/03/13 08:55:25;;;;;;;24.45;13.00;;;14.70;99.90;;;;;;5014240;28;20056;-65
2022/03/13 08:57:51;;;;;;;26.85;12.65;;;14.70;99.90;;;;;;5013779;28;20032;-65
2022/03/13 09:00:18;;;;;;;24.77;12.55;;;14.50;99.90;;;;;;5011884;28;20029;-67
2022/03/13 09:02:45;;;;;;;28.25;13.70;;;14.40;99.90;;;;;;5011963;28;20176;-64
2022/03/13 09:05:11;;;;;;;25.42;12.43;;;14.30;99.90;;;;;;5013795;28;20462;-65
2022/03/13 09:07:37;;;;;;;27.42;13.07;;;14.20;99.90;;;;;;4999239;28;20026;-63
2022/03/13 09:10:07;;;;;;;25.35;12.65;;;14.10;99.90;;;;;;5011329;28;20137;-63
2022/03/13 09:12:33;;;;;;;25.00;13.27;;;14.20;99.90;;;;;;5006524;28;20037;-62
2022/03/13 09:15:00;;;;;;;25.60;12.93;;;14.80;99.90;;;;;;5013828;28;20030;-64
2022/03/13 09:17:25;;;;;;;22.10;11.05;;;15.70;99.70;;;;;;5011254;28;20026;-63
2022/03/13 09:19:53;;;;;;;20.23;11.57;;;16.70;98.30;;;;;;5005553;28;20030;-62
2022/03/13 09:22:20;;;;;;;21.00;11.27;;;17.70;97.20;;;;;;5011828;28;20030;-62
2022/03/13 09:24:46;;;;;;;21.90;11.60;;;18.60;95.70;;;;;;5011230;28;20049;-62
2022/03/13 09:27:14;;;;;;;20.20;11.13;;;19.10;94.70;;;;;;5012251;28;20038;-62
2022/03/13 09:29:40;;;;;;;21.70;12.07;;;19.50;93.90;;;;;;5012191;28;20108;-62
2022/03/13 09:32:06;;;;;;;19.98;9.90;;;19.60;93.30;;;;;;5021226;28;20077;-62
2022/03/13 09:34:33;;;;;;;21.85;11.85;;;19.80;92.60;;;;;;5008138;28;20057;-62
2022/03/13 09:37:01;;;;;;;20.92;11.35;;;19.80;92.30;;;;;;5010927;28;20040;-62
2022/03/13 09:39:29;;;;;;;23.13;12.05;;;20.10;92.00;;;;;;5010457;28;20044;-63
2022/03/13 09:41:56;;;;;;;20.75;11.85;;;20.20;91.50;;;;;;5008712;28;20034;-66
2022/03/13 09:44:24;;;;;;;20.80;11.77;;;20.20;91.10;;;;;;5009589;28;20117;-67
2022/03/13 09:46:55;;;;;;;22.38;11.85;;;20.40;90.80;;;;;;5014478;28;20024;-63
2022/03/13 09:49:24;;;;;;;20.90;11.87;;;20.30;90.60;;;;;;5013426;28;20033;-65
2022/03/13 09:51:51;;;;;;;19.85;11.48;;;20.30;90.60;;;;;;5010925;28;20105;-63
2022/03/13 09:54:17;;;;;;;21.42;12.40;;;20.60;90.20;;;;;;5011941;28;20033;-63
2022/03/13 09:56:43;;;;;;;21.67;12.18;;;20.70;90.00;;;;;;5014019;28;20237;-63
2022/03/13 09:59:11;;;;;;;19.25;11.35;;;21.20;89.20;;;;;;5014026;28;20032;-62
2022/03/13 10:01:36;;;;;;;20.63;12.18;;;21.70;88.00;;;;;;5008873;28;20108;-65
2022/03/13 10:04:04;;;;;;;20.75;12.25;;;22.10;86.70;;;;;;5011290;28;20402;-62
2022/03/13 10:06:30;;;;;;;20.17;11.38;;;22.50;85.10;;;;;;5012611;28;20053;-63
2022/03/13 10:08:55;;;;;;;20.38;11.00;;;22.70;84.10;;;;;;5011563;28;20068;-63
2022/03/13 10:11:32;;;;;;;20.02;11.55;;;22.80;83.00;;;;;;5009391;28;20026;-65
2022/03/13 10:14:10;;;;;;;20.45;11.68;;;22.40;83.20;;;;;;5011575;28;20497;-64
2022/03/13 10:16:38;;;;;;;20.23;10.88;;;22.10;83.50;;;;;;5011302;28;20497;-64
2022/03/13 10:19:19;;;;;;;20.83;11.45;;;21.90;83.20;;;;;;5019658;28;20037;-62
2022/03/13 10:22:08;;;;;;;19.98;8.48;;;21.70;83.50;;;;;;5008420;28;20108;-64
2022/03/13 10:24:43;;;;;;;18.90;10.68;;;21.60;82.90;;;;;;5003775;28;20454;-64
2022/03/13 10:27:14;;;;;;;19.08;10.98;;;21.50;82.80;;;;;;5008350;28;20048;-65
2022/03/13 10:29:41;;;;;;;19.77;10.55;;;21.50;82.90;;;;;;5010200;28;20034;-66
2022/03/13 10:32:08;;;;;;;20.67;10.20;;;21.80;82.30;;;;;;5006941;28;20026;-65
2022/03/13 10:34:34;;;;;;;20.45;10.95;;;21.90;81.60;;;;;;5008225;28;20029;-66
2022/03/13 10:37:01;;;;;;;19.33;10.65;;;22.40;81.80;;;;;;5027497;28;20057;-63
2022/03/13 10:39:28;;;;;;;15.90;8.13;;;22.70;80.20;;;;;;5012323;28;20022;-63
2022/03/13 10:42:04;;;;;;;19.92;11.68;;;22.70;79.10;;;;;;5003792;28;20125;-63
2022/03/13 10:44:34;;;;;;;20.70;11.40;;;22.20;80.10;;;;;;5008983;28;20030;-64
2022/03/13 10:47:05;;;;;;;19.02;10.82;;;21.80;80.80;;;;;;5008925;28;20040;-66
2022/03/13 10:49:36;;;;;;;19.35;11.43;;;21.80;80.70;;;;;;5010322;28;20025;-65
2022/03/13 10:52:22;;;;;;;20.23;11.13;;;21.90;80.10;;;;;;5019378;28;20117;-65
2022/03/13 10:54:49;;;;;;;18.85;10.30;;;22.00;80.20;;;;;;5011550;28;20036;-64
2022/03/13 10:57:16;;;;;;;18.13;9.65;;;22.30;79.70;;;;;;5000003;28;20487;-63
2022/03/13 10:59:43;;;;;;;17.88;10.43;;;22.60;78.90;;;;;;5008683;28;20147;-62
2022/03/13 11:02:32;;;;;;;19.73;11.68;;;22.90;79.00;;;;;;5011115;28;20030;-65
2022/03/13 11:05:00;;;;;;;18.95;10.45;;;23.20;78.50;;;;;;5020395;28;20496;-63
2022/03/13 11:07:27;;;;;;;19.17;10.35;;;23.50;77.50;;;;;;5012626;28;20050;-62
2022/03/13 11:09:54;;;;;;;19.35;10.88;;;23.40;76.40;;;;;;5005721;28;20387;-65
2022/03/13 11:12:20;;;;;;;18.90;11.90;;;23.20;77.30;;;;;;5006121;28;20113;-62
2022/03/13 11:14:52;;;;;;;18.58;10.20;;;23.20;77.50;;;;;;5008155;28;20496;-65
2022/03/13 11:17:22;;;;;;;18.65;10.95;;;23.40;77.00;;;;;;5011566;28;20033;-65
2022/03/13 11:19:56;;;;;;;18.42;11.27;;;23.50;76.60;;;;;;5016637;28;20026;-63
2022/03/13 11:22:25;;;;;;;17.00;9.88;;;23.50;76.20;;;;;;5015116;28;20073;-63
2022/03/13 11:25:02;;;;;;;21.13;11.57;;;23.60;75.60;;;;;;5011831;28;20104;-63
2022/03/13 11:27:31;;;;;;;20.58;10.20;;;23.70;75.70;;;;;;5015087;28;20513;-64
2022/03/13 11:29:57;;;;;;;17.02;10.10;;;23.60;74.90;;;;;;5015136;28;20022;-62
2022/03/13 11:32:45;;;;;;;18.98;11.50;;;23.40;75.40;;;;;;5014216;28;20712;-64
2022/03/13 11:35:14;;;;;;;17.83;10.90;;;23.20;76.10;;;;;;5004538;28;20036;-63
2022/03/13 11:37:42;;;;;;;20.25;11.05;;;23.30;76.10;;;;;;5014857;28;20128;-67
2022/03/13 11:40:11;;;;;;;19.95;11.85;;;23.20;76.20;;;;;;5013699;28;20025;-63
2022/03/13 11:42:50;;;;;;;19.67;11.30;;;23.20;75.50;;;;;;5035776;28;20434;-66
2022/03/13 11:45:34;;;;;;;20.20;11.60;;;23.20;75.90;;;;;;5012526;28;20052;-64
2022/03/13 11:48:14;;;;;;;19.48;11.73;;;23.20;75.30;;;;;;5015151;28;20026;-64
2022/03/13 11:50:54;;;;;;;18.85;11.10;;;23.30;75.30;;;;;;5013415;28;20536;-64
2022/03/13 11:53:29;;;;;;;19.42;10.98;;;23.50;75.20;;;;;;5017568;28;20382;-63
2022/03/13 11:56:16;;;;;;;20.52;12.20;;;23.50;74.70;;;;;;5014444;28;20022;-67
2022/03/13 11:58:51;;;;;;;21.52;11.40;;;23.30;74.60;;;;;;5014217;28;20148;-64
2022/03/13 12:01:39;;;;;;;19.50;10.90;;;23.40;74.10;;;;;;5014314;28;20022;-64
2022/03/13 12:04:11;;;;;;;21.05;10.90;;;23.60;74.20;;;;;;5012576;28;20041;-65
2022/03/13 12:06:41;;;;;;;19.65;11.32;;;23.70;73.70;;;;;;5029952;28;20493;-64
2022/03/13 12:09:14;;;;;;;18.63;10.60;;;23.60;73.10;;;;;;5018267;28;20041;-62
2022/03/13 12:11:45;;;;;;;20.02;11.57;;;23.40;73.80;;;;;;5016337;28;20065;-62
2022/03/13 12:14:15;;;;;;;22.42;13.35;;;23.20;73.60;;;;;;5024687;28;20100;-63
2022/03/13 12:16:44;;;;;;;20.17;11.88;;;23.10;73.90;;;;;;5011127;28;20030;-63
2022/03/13 12:19:12;;;;;;;19.55;11.32;;;23.30;73.30;;;;;;5006740;28;20116;-64
2022/03/13 12:21:45;;;;;;;20.23;10.70;;;23.30;73.20;;;;;;5014796;28;20041;-66
2022/03/13 12:24:19;;;;;;;18.63;11.18;;;23.30;73.10;;;;;;5012192;28;20060;-63
2022/03/13 12:26:46;;;;;;;19.77;11.30;;;23.30;72.90;;;;;;5016349;28;20040;-63
2022/03/13 12:29:13;;;;;;;22.17;11.93;;;23.50;73.00;;;;;;5012095;28;20026;-63
2022/03/13 12:31:41;;;;;;;20.98;11.68;;;23.40;73.20;;;;;;5014168;28;20084;-64
2022/03/13 12:34:06;;;;;;;19.80;11.38;;;23.20;72.60;;;;;;4994690;28;20026;-62
2022/03/13 12:36:40;;;;;;;21.27;11.43;;;23.20;72.80;;;;;;4995439;28;20034;-62
2022/03/13 12:39:14;;;;;;;19.23;10.98;;;23.00;72.60;;;;;;4995312;28;20058;-62